sensor_id;sensor_type;location;lat;lon;timestamp;pressure;altitude;pressure_sealevel;temperature;humidity
18795;BME280;29610;49.022;12.114;2022-12-18T00:00:22;99041.56;;;-2.43;100.00
18795;BME280;29610;49.022;12.114;2022-12-18T00:02:55;99043.19;;;-2.42;100.00
18795;BME280;29610;49.022;12.114;2022-12-18T00:05:24;99041.16;;;-2.46;100.00
18795;BME280;29610;49.022;12.114;2022-12-18T00:07:52;99042.19;;;-2.67;100.00
18795;BME280;29610;49.022;12.114;2022-12-18T00:10:21;99035.19;;;-2.42;100.00
18795;BME280;29610;49.022;12.114;2022-12-18T00:12:50;99030.91;;;-2.49;100.00
18795;BME280;29610;49.022;12.114;2022-12-18T00:15:19;99026.59;;;-2.31;100.00
18795;BME280;29610;49.022;12.114;2022-12-18T00:17:47;99023.31;;;-2.39;100.00
18795;BME280;29610;49.022;12.114;2022-12-18T00:20:17;99026.78;;;-2.19;100.00
18795;BME280;29610;49.022;12.114;2022-12-18T00:22:52;99033.34;;;-2.35;100.00
18795;BME280;29610;49.022;12.114;2022-12-18T00:25:21;99026.59;;;-2.31;100.00
18795;BME280;29610;49.022;12.114;2022-12-18T00:27:50;99034.16;;;-2.28;100.00
18795;BME280;29610;49.022;12.114;2022-12-18T00:30:19;99048.50;;;-2.16;100.00
18795;BME280;29610;49.022;12.114;2022-12-18T00:32:47;99057.69;;;-2.12;100.00
18795;BME280;29610;49.022;12.114;2022-12-18T00:35:18;99050.72;;;-2.06;100.00
18795;BME280;29610;49.022;12.114;2022-12-18T00:37:46;99051.94;;;-2.15;100.00
18795;BME280;29610;49.022;12.114;2022-12-18T00:40:15;99055.03;;;-2.18;100.00
18795;BME280;29610;49.022;12.114;2022-12-18T00:42:44;99054.41;;;-2.07;100.00
18795;BME280;29610;49.022;12.114;2022-12-18T00:45:24;99058.09;;;-2.02;100.00
18795;BME280;29610;49.022;12.114;2022-12-18T00:47:54;99056.63;;;-2.04;100.00
18795;BME280;29610;49.022;12.114;2022-12-18T00:50:25;99065.28;;;-2.15;100.00
18795;BME280;29610;49.022;12.114;2022-12-18T00:52:54;99070.00;;;-2.11;100.00
18795;BME280;29610;49.022;12.114;2022-12-18T00:55:22;99071.44;;;-2.21;100.00
18795;BME280;29610;49.022;12.114;2022-12-18T00:57:51;99077.59;;;-2.34;100.00
18795;BME280;29610;49.022;12.114;2022-12-18T01:00:21;99064.06;;;-2.32;100.00
18795;BME280;29610;49.022;12.114;2022-12-18T01:02:50;99066.50;;;-2.11;100.00
18795;BME280;29610;49.022;12.114;2022-12-18T01:05:19;99061.41;;;-2.26;100.00
18795;BME280;29610;49.022;12.114;2022-12-18T01:07:49;99057.91;;;-2.13;100.00
18795;BME280;29610;49.022;12.114;2022-12-18T01:10:18;99063.63;;;-2.16;100.00
18795;BME280;29610;49.022;12.114;2022-12-18T01:12:47;99065.47;;;-2.17;100.00
18795;BME280;29610;49.022;12.114;2022-12-18T01:15:20;99056.69;;;-2.37;100.00
18795;BME280;29610;49.022;12.114;2022-12-18T01:17:48;99065.28;;;-2.22;100.00
18795;BME280;29610;49.022;12.114;2022-12-18T01:20:20;99073.69;;;-2.18;100.00
18795;BME280;29610;49.022;12.114;2022-12-18T01:22:50;99075.50;;;-2.06;100.00
18795;BME280;29610;49.022;12.114;2022-12-18T01:25:18;99077.56;;;-2.01;100.00
18795;BME280;29610;49.022;12.114;2022-12-18T01:27:47;99083.28;;;-2.04;100.00
18795;BME280;29610;49.022;12.114;2022-12-18T01:30:16;99080.03;;;-2.13;100.00
18795;BME280;29610;49.022;12.114;2022-12-18T01:32:45;99093.97;;;-2.43;100.00
18795;BME280;29610;49.022;12.114;2022-12-18T01:35:14;99083.53;;;-2.51;100.00
18795;BME280;29610;49.022;12.114;2022-12-18T01:37:42;99078.19;;;-2.64;100.00
18795;BME280;29610;49.022;12.114;2022-12-18T01:40:12;99073.28;;;-2.67;100.00
18795;BME280;29610;49.022;12.114;2022-12-18T01:42:41;99077.56;;;-2.60;100.00
18795;BME280;29610;49.022;12.114;2022-12-18T01:45:26;99084.16;;;-2.56;100.00
18795;BME280;29610;49.022;12.114;2022-12-18T01:47:59;99091.50;;;-2.51;100.00
18795;BME280;29610;49.022;12.114;2022-12-18T01:50:32;99090.28;;;-2.49;100.00
18795;BME280;29610;49.022;12.114;2022-12-18T01:53:09;99090.28;;;-2.55;100.00
18795;BME280;29610;49.022;12.114;2022-12-18T01:55:45;99090.69;;;-2.32;100.00
18795;BME280;29610;49.022;12.114;2022-12-18T01:58:16;99091.72;;;-2.27;100.00
18795;BME280;29610;49.022;12.114;2022-12-18T02:00:46;99100.91;;;-2.10;100.00
18795;BME280;29610;49.022;12.114;2022-12-18T02:03:15;99096.63;;;-2.56;100.00
18795;BME280;29610;49.022;12.114;2022-12-18T02:05:56;99101.75;;;-2.35;100.00
18795;BME280;29610;49.022;12.114;2022-12-18T02:08:34;99107.06;;;-2.35;100.00
18795;BME280;29610;49.022;12.114;2022-12-18T02:11:17;99093.97;;;-2.24;100.00
18795;BME280;29610;49.022;12.114;2022-12-18T02:13:53;99099.69;;;-2.07;100.00
18795;BME280;29610;49.022;12.114;2022-12-18T02:16:35;99099.47;;;-2.06;100.00
18795;BME280;29610;49.022;12.114;2022-12-18T02:19:24;99101.34;;;-2.13;100.00
18795;BME280;29610;49.022;12.114;2022-12-18T02:22:10;99103.38;;;-2.02;100.00
18795;BME280;29610;49.022;12.114;2022-12-18T02:24:54;99100.06;;;-1.84;100.00
18795;BME280;29610;49.022;12.114;2022-12-18T02:27:32;99100.28;;;-1.86;100.00
18795;BME280;29610;49.022;12.114;2022-12-18T02:30:05;99102.53;;;-1.96;100.00
18795;BME280;29610;49.022;12.114;2022-12-18T02:32:41;99096.81;;;-1.99;100.00
18795;BME280;29610;49.022;12.114;2022-12-18T02:35:20;99091.53;;;-2.25;100.00
18795;BME280;29610;49.022;12.114;2022-12-18T02:37:54;99102.78;;;-2.30;100.00
18795;BME280;29610;49.022;12.114;2022-12-18T02:40:26;99092.53;;;-2.07;100.00
18795;BME280;29610;49.022;12.114;2022-12-18T02:43:06;99091.72;;;-2.20;100.00
18795;BME280;29610;49.022;12.114;2022-12-18T02:45:35;99090.06;;;-2.08;100.00
18795;BME280;29610;49.022;12.114;2022-12-18T02:48:04;99094.19;;;-2.12;100.00
18795;BME280;29610;49.022;12.114;2022-12-18T02:50:38;99097.41;;;-1.91;100.00
18795;BME280;29610;49.022;12.114;2022-12-18T02:53:18;99105.59;;;-1.79;100.00
18795;BME280;29610;49.022;12.114;2022-12-18T02:56:02;99108.06;;;-1.84;100.00
18795;BME280;29610;49.022;12.114;2022-12-18T02:58:48;99111.34;;;-1.89;100.00
18795;BME280;29610;49.022;12.114;2022-12-18T03:01:38;99113.59;;;-1.86;100.00
18795;BME280;29610;49.022;12.114;2022-12-18T03:04:15;99111.13;;;-1.81;100.00
18795;BME280;29610;49.022;12.114;2022-12-18T03:06:53;99114.59;;;-1.87;100.00
18795;BME280;29610;49.022;12.114;2022-12-18T03:09:29;99111.78;;;-1.92;100.00
18795;BME280;29610;49.022;12.114;2022-12-18T03:12:07;99101.13;;;-2.05;100.00
18795;BME280;29610;49.022;12.114;2022-12-18T03:15:02;99094.16;;;-2.06;100.00
18795;BME280;29610;49.022;12.114;2022-12-18T03:17:34;99106.44;;;-1.98;100.00
18795;BME280;29610;49.022;12.114;2022-12-18T03:20:08;99097.44;;;-2.04;100.00
18795;BME280;29610;49.022;12.114;2022-12-18T03:22:40;99098.47;;;-2.05;100.00
18795;BME280;29610;49.022;12.114;2022-12-18T03:25:14;99108.72;;;-2.08;100.00
18795;BME280;29610;49.022;12.114;2022-12-18T03:27:49;99099.88;;;-2.09;100.00
18795;BME280;29610;49.022;12.114;2022-12-18T03:30:21;99106.47;;;-2.11;100.00
18795;BME280;29610;49.022;12.114;2022-12-18T03:32:58;99102.13;;;-2.06;100.00
18795;BME280;29610;49.022;12.114;2022-12-18T03:35:33;99110.97;;;-2.25;100.00
18795;BME280;29610;49.022;12.114;2022-12-18T03:38:04;99102.75;;;-2.17;100.00
18795;BME280;29610;49.022;12.114;2022-12-18T03:40:48;99098.69;;;-2.13;100.00
18795;BME280;29610;49.022;12.114;2022-12-18T03:43:34;99097.84;;;-2.20;100.00
18795;BME280;29610;49.022;12.114;2022-12-18T03:46:16;99095.81;;;-2.11;100.00
18795;BME280;29610;49.022;12.114;2022-12-18T03:48:53;99094.78;;;-2.10;100.00
18795;BME280;29610;49.022;12.114;2022-12-18T03:51:35;99093.78;;;-2.16;100.00
18795;BME280;29610;49.022;12.114;2022-12-18T03:54:08;99089.44;;;-2.23;100.00
18795;BME280;29610;49.022;12.114;2022-12-18T03:56:48;99091.31;;;-2.24;100.00
18795;BME280;29610;49.022;12.114;2022-12-18T03:59:21;99092.94;;;-2.29;100.00
18795;BME280;29610;49.022;12.114;2022-12-18T04:01:56;99100.91;;;-2.42;100.00
18795;BME280;29610;49.022;12.114;2022-12-18T04:04:28;99104.41;;;-2.42;100.00
18795;BME280;29610;49.022;12.114;2022-12-18T04:07:01;99108.91;;;-2.42;100.00
18795;BME280;29610;49.022;12.114;2022-12-18T04:09:34;99107.69;;;-2.46;100.00
18795;BME280;29610;49.022;12.114;2022-12-18T04:12:05;99109.94;;;-2.50;100.00
18795;BME280;29610;49.022;12.114;2022-12-18T04:14:34;99113.22;;;-2.35;100.00
18795;BME280;29610;49.022;12.114;2022-12-18T04:17:08;99127.56;;;-2.29;100.00
18795;BME280;29610;49.022;12.114;2022-12-18T04:19:37;99122.63;;;-2.45;100.00
18795;BME280;29610;49.022;12.114;2022-12-18T04:22:10;99122.84;;;-2.47;100.00
18795;BME280;29610;49.022;12.114;2022-12-18T04:24:43;99124.09;;;-2.43;100.00
18795;BME280;29610;49.022;12.114;2022-12-18T04:27:20;99126.56;;;-2.28;100.00
18795;BME280;29610;49.022;12.114;2022-12-18T04:29:50;99130.81;;;-2.47;100.00
18795;BME280;29610;49.022;12.114;2022-12-18T04:32:20;99125.91;;;-2.56;100.00
18795;BME280;29610;49.022;12.114;2022-12-18T04:34:49;99122.63;;;-2.39;100.00
18795;BME280;29610;49.022;12.114;2022-12-18T04:37:18;99133.91;;;-2.37;100.00
18795;BME280;29610;49.022;12.114;2022-12-18T04:39:49;99139.81;;;-2.61;100.00
18795;BME280;29610;49.022;12.114;2022-12-18T04:42:28;99139.84;;;-2.54;100.00
18795;BME280;29610;49.022;12.114;2022-12-18T04:44:57;99142.25;;;-2.66;100.00
18795;BME280;29610;49.022;12.114;2022-12-18T04:47:27;99136.97;;;-2.59;100.00
18795;BME280;29610;49.022;12.114;2022-12-18T04:49:55;99146.59;;;-2.65;100.00
18795;BME280;29610;49.022;12.114;2022-12-18T04:52:24;99150.28;;;-2.40;100.00
18795;BME280;29610;49.022;12.114;2022-12-18T04:54:52;99146.81;;;-2.34;100.00
18795;BME280;29610;49.022;12.114;2022-12-18T04:57:21;99150.06;;;-2.51;100.00
18795;BME280;29610;49.022;12.114;2022-12-18T04:59:50;99155.59;;;-2.46;100.00
18795;BME280;29610;49.022;12.114;2022-12-18T05:02:20;99148.66;;;-2.47;100.00
18795;BME280;29610;49.022;12.114;2022-12-18T05:04:50;99140.69;;;-2.47;100.00
18795;BME280;29610;49.022;12.114;2022-12-18T05:07:18;99141.06;;;-2.44;100.00
18795;BME280;29610;49.022;12.114;2022-12-18T05:09:47;99157.00;;;-2.70;100.00
18795;BME280;29610;49.022;12.114;2022-12-18T05:12:16;99160.44;;;-2.89;100.00
18795;BME280;29610;49.022;12.114;2022-12-18T05:14:49;99157.22;;;-2.71;100.00
18795;BME280;29610;49.022;12.114;2022-12-18T05:17:18;99152.31;;;-2.55;100.00
18795;BME280;29610;49.022;12.114;2022-12-18T05:19:46;99156.19;;;-2.64;100.00
18795;BME280;29610;49.022;12.114;2022-12-18T05:22:16;99164.78;;;-2.68;100.00
18795;BME280;29610;49.022;12.114;2022-12-18T05:24:45;99163.50;;;-2.79;100.00
18795;BME280;29610;49.022;12.114;2022-12-18T05:27:13;99163.69;;;-2.87;100.00
18795;BME280;29610;49.022;12.114;2022-12-18T05:29:42;99164.72;;;-2.88;100.00
18795;BME280;29610;49.022;12.114;2022-12-18T05:32:10;99163.75;;;-2.74;100.00
18795;BME280;29610;49.022;12.114;2022-12-18T05:34:39;99171.78;;;-2.54;100.00
18795;BME280;29610;49.022;12.114;2022-12-18T05:37:08;99164.78;;;-2.68;100.00
18795;BME280;29610;49.022;12.114;2022-12-18T05:39:37;99165.59;;;-2.68;100.00
18795;BME280;29610;49.022;12.114;2022-12-18T05:42:06;99170.84;;;-2.94;100.00
18795;BME280;29610;49.022;12.114;2022-12-18T05:44:34;99176.81;;;-2.92;100.00
18795;BME280;29610;49.022;12.114;2022-12-18T05:47:03;99178.84;;;-2.87;100.00
18795;BME280;29610;49.022;12.114;2022-12-18T05:49:32;99182.59;;;-2.69;100.00
18795;BME280;29610;49.022;12.114;2022-12-18T05:52:01;99179.31;;;-2.71;100.00
18795;BME280;29610;49.022;12.114;2022-12-18T05:54:31;99174.81;;;-2.70;100.00
18795;BME280;29610;49.022;12.114;2022-12-18T05:57:01;99186.28;;;-2.70;100.00
18795;BME280;29610;49.022;12.114;2022-12-18T05:59:30;99188.06;;;-2.83;100.00
18795;BME280;29610;49.022;12.114;2022-12-18T06:01:59;99197.50;;;-2.81;100.00
18795;BME280;29610;49.022;12.114;2022-12-18T06:04:27;99202.41;;;-2.84;100.00
18795;BME280;29610;49.022;12.114;2022-12-18T06:07:03;99203.59;;;-2.87;100.00
18795;BME280;29610;49.022;12.114;2022-12-18T06:09:32;99202.78;;;-2.94;100.00
18795;BME280;29610;49.022;12.114;2022-12-18T06:12:02;99208.59;;;-3.18;100.00
18795;BME280;29610;49.022;12.114;2022-12-18T06:14:31;99209.56;;;-3.32;100.00
18795;BME280;29610;49.022;12.114;2022-12-18T06:16:59;99202.22;;;-3.24;100.00
18795;BME280;29610;49.022;12.114;2022-12-18T06:19:28;99198.53;;;-3.29;100.00
18795;BME280;29610;49.022;12.114;2022-12-18T06:21:56;99206.25;;;-3.34;100.00
18795;BME280;29610;49.022;12.114;2022-12-18T06:24:26;99206.81;;;-3.45;100.00
18795;BME280;29610;49.022;12.114;2022-12-18T06:26:55;99203.38;;;-3.39;100.00
18795;BME280;29610;49.022;12.114;2022-12-18T06:29:25;99203.41;;;-3.33;100.00
18795;BME280;29610;49.022;12.114;2022-12-18T06:31:54;99216.22;;;-3.43;100.00
18795;BME280;29610;49.022;12.114;2022-12-18T06:34:22;99220.66;;;-3.56;100.00
18795;BME280;29610;49.022;12.114;2022-12-18T06:36:51;99211.31;;;-3.46;100.00
18795;BME280;29610;49.022;12.114;2022-12-18T06:39:20;99208.53;;;-3.31;100.00
18795;BME280;29610;49.022;12.114;2022-12-18T06:41:48;99214.28;;;-3.28;100.00
18795;BME280;29610;49.022;12.114;2022-12-18T06:44:17;99226.50;;;-3.33;100.00
18795;BME280;29610;49.022;12.114;2022-12-18T06:46:47;99225.16;;;-3.23;100.00
18795;BME280;29610;49.022;12.114;2022-12-18T06:49:16;99227.91;;;-3.37;100.00
18795;BME280;29610;49.022;12.114;2022-12-18T06:51:44;99224.69;;;-3.33;100.00
18795;BME280;29610;49.022;12.114;2022-12-18T06:54:13;99221.69;;;-3.17;100.00
18795;BME280;29610;49.022;12.114;2022-12-18T06:56:42;99221.34;;;-3.07;100.00
18795;BME280;29610;49.022;12.114;2022-12-18T06:59:11;99228.00;;;-3.24;100.00
18795;BME280;29610;49.022;12.114;2022-12-18T07:01:40;99226.97;;;-3.23;100.00
18795;BME280;29610;49.022;12.114;2022-12-18T07:04:10;99230.72;;;-3.11;100.00
18795;BME280;29610;49.022;12.114;2022-12-18T07:06:39;99231.09;;;-3.14;100.00
18795;BME280;29610;49.022;12.114;2022-12-18T07:09:07;99240.66;;;-3.26;100.00
18795;BME280;29610;49.022;12.114;2022-12-18T07:11:36;99252.13;;;-3.19;100.00
18795;BME280;29610;49.022;12.114;2022-12-18T07:14:05;99260.50;;;-3.22;100.00
18795;BME280;29610;49.022;12.114;2022-12-18T07:16:33;99256.94;;;-3.08;100.00
18795;BME280;29610;49.022;12.114;2022-12-18T07:19:03;99247.16;;;-2.94;100.00
18795;BME280;29610;49.022;12.114;2022-12-18T07:21:33;99244.25;;;-3.06;100.00
18795;BME280;29610;49.022;12.114;2022-12-18T07:24:01;99252.03;;;-3.05;100.00
18795;BME280;29610;49.022;12.114;2022-12-18T07:26:31;99257.31;;;-3.11;100.00
18795;BME280;29610;49.022;12.114;2022-12-18T07:29:00;99247.44;;;-2.83;100.00
18795;BME280;29610;49.022;12.114;2022-12-18T07:31:29;99245.06;;;-3.06;100.00
18795;BME280;29610;49.022;12.114;2022-12-18T07:33:58;99245.16;;;-3.27;100.00
18795;BME280;29610;49.022;12.114;2022-12-18T07:36:27;99235.50;;;-2.93;100.00
18795;BME280;29610;49.022;12.114;2022-12-18T07:38:57;99234.31;;;-2.84;100.00
18795;BME280;29610;49.022;12.114;2022-12-18T07:41:26;99236.50;;;-3.01;100.00
18795;BME280;29610;49.022;12.114;2022-12-18T07:43:54;99221.69;;;-3.17;100.00
18795;BME280;29610;49.022;12.114;2022-12-18T07:46:23;99231.78;;;-3.06;100.00
18795;BME280;29610;49.022;12.114;2022-12-18T07:48:52;99228.28;;;-3.06;100.00
18795;BME280;29610;49.022;12.114;2022-12-18T07:51:21;99227.72;;;-2.95;100.00
18795;BME280;29610;49.022;12.114;2022-12-18T07:53:49;99229.41;;;-2.87;100.00
18795;BME280;29610;49.022;12.114;2022-12-18T07:56:20;99236.06;;;-3.05;100.00
18795;BME280;29610;49.022;12.114;2022-12-18T07:58:55;99244.28;;;-3.00;100.00
18795;BME280;29610;49.022;12.114;2022-12-18T08:01:24;99246.53;;;-2.97;100.00
18795;BME280;29610;49.022;12.114;2022-12-18T08:03:53;99259.34;;;-2.72;100.00
18795;BME280;29610;49.022;12.114;2022-12-18T08:06:22;99260.78;;;-2.70;100.00
18795;BME280;29610;49.022;12.114;2022-12-18T08:08:52;99254.66;;;-2.64;100.00
18795;BME280;29610;49.022;12.114;2022-12-18T08:11:26;99258.09;;;-2.76;100.00
18795;BME280;29610;49.022;12.114;2022-12-18T08:13:55;99259.59;;;-2.54;100.00
18795;BME280;29610;49.022;12.114;2022-12-18T08:16:25;99264.53;;;-2.51;100.00
18795;BME280;29610;49.022;12.114;2022-12-18T08:18:54;99270.00;;;-2.66;100.00
18795;BME280;29610;49.022;12.114;2022-12-18T08:21:25;99264.84;;;-2.74;100.00
18795;BME280;29610;49.022;12.114;2022-12-18T08:23:59;99269.41;;;-2.61;100.00
18795;BME280;29610;49.022;12.114;2022-12-18T08:26:31;99281.25;;;-2.70;100.00
18795;BME280;29610;49.022;12.114;2022-12-18T08:29:00;99284.09;;;-2.72;100.00
18795;BME280;29610;49.022;12.114;2022-12-18T08:31:30;99290.19;;;-2.84;100.00
18795;BME280;29610;49.022;12.114;2022-12-18T08:34:00;99287.09;;;-2.47;100.00
18795;BME280;29610;49.022;12.114;2022-12-18T08:36:29;99286.84;;;-2.52;100.00
18795;BME280;29610;49.022;12.114;2022-12-18T08:38:57;99289.75;;;-2.34;100.00
18795;BME280;29610;49.022;12.114;2022-12-18T08:41:27;99288.09;;;-2.48;100.00
18795;BME280;29610;49.022;12.114;2022-12-18T08:43:57;99288.72;;;-2.46;100.00
18795;BME280;29610;49.022;12.114;2022-12-18T08:46:44;99283.38;;;-2.46;100.00
18795;BME280;29610;49.022;12.114;2022-12-18T08:49:13;99292.81;;;-2.44;100.00
18795;BME280;29610;49.022;12.114;2022-12-18T08:51:41;99290.13;;;-2.57;100.00
18795;BME280;29610;49.022;12.114;2022-12-18T08:54:12;99289.19;;;-2.17;100.00
18795;BME280;29610;49.022;12.114;2022-12-18T08:56:41;99295.78;;;-2.06;100.00
18795;BME280;29610;49.022;12.114;2022-12-18T08:59:11;99293.72;;;-2.17;100.00
18795;BME280;29610;49.022;12.114;2022-12-18T09:01:46;99296.97;;;-2.28;100.00
18795;BME280;29610;49.022;12.114;2022-12-18T09:04:16;99300.50;;;-2.08;100.00
18795;BME280;29610;49.022;12.114;2022-12-18T09:06:44;99289.38;;;-2.25;100.00
18795;BME280;29610;49.022;12.114;2022-12-18T09:09:13;99295.34;;;-2.16;100.00
18795;BME280;29610;49.022;12.114;2022-12-18T09:11:42;99295.16;;;-2.08;100.00
18795;BME280;29610;49.022;12.114;2022-12-18T09:14:13;99292.75;;;-1.90;100.00
18795;BME280;29610;49.022;12.114;2022-12-18T09:16:41;99289.47;;;-1.86;100.00
18795;BME280;29610;49.022;12.114;2022-12-18T09:19:10;99291.31;;;-1.86;100.00
18795;BME280;29610;49.022;12.114;2022-12-18T09:21:39;99287.63;;;-1.98;100.00
18795;BME280;29610;49.022;12.114;2022-12-18T09:24:15;99291.69;;;-1.96;100.00
18795;BME280;29610;49.022;12.114;2022-12-18T09:26:44;99287.19;;;-1.95;100.00
18795;BME280;29610;49.022;12.114;2022-12-18T09:29:15;99289.44;;;-2.05;100.00
18795;BME280;29610;49.022;12.114;2022-12-18T09:31:45;99289.66;;;-1.94;100.00
18795;BME280;29610;49.022;12.114;2022-12-18T09:34:14;99285.56;;;-1.70;100.00
18795;BME280;29610;49.022;12.114;2022-12-18T09:36:43;99282.28;;;-1.72;100.00
18795;BME280;29610;49.022;12.114;2022-12-18T09:39:14;99289.69;;;-1.81;100.00
18795;BME280;29610;49.022;12.114;2022-12-18T09:41:47;99291.25;;;-2.06;100.00
18795;BME280;29610;49.022;12.114;2022-12-18T09:44:27;99281.03;;;-2.09;100.00
18795;BME280;29610;49.022;12.114;2022-12-18T09:47:05;99274.50;;;-2.00;100.00
18795;BME280;29610;49.022;12.114;2022-12-18T09:49:42;99282.28;;;-1.92;100.00
18795;BME280;29610;49.022;12.114;2022-12-18T09:52:19;99278.59;;;-1.97;100.00
18795;BME280;29610;49.022;12.114;2022-12-18T09:54:55;99274.28;;;-2.05;100.00
18795;BME280;29610;49.022;12.114;2022-12-18T09:57:26;99272.59;;;-2.32;100.00
18795;BME280;29610;49.022;12.114;2022-12-18T10:00:03;99274.03;;;-2.23;100.00
18795;BME280;29610;49.022;12.114;2022-12-18T10:02:37;99265.66;;;-2.13;100.00
18795;BME280;29610;49.022;12.114;2022-12-18T10:05:14;99265.66;;;-2.07;100.00
18795;BME280;29610;49.022;12.114;2022-12-18T10:08:00;99267.28;;;-2.06;100.00
18795;BME280;29610;49.022;12.114;2022-12-18T10:10:41;99261.16;;;-1.80;100.00
18795;BME280;29610;49.022;12.114;2022-12-18T10:13:23;99259.31;;;-1.86;100.00
18795;BME280;29610;49.022;12.114;2022-12-18T10:16:12;99263.63;;;-1.98;100.00
18795;BME280;29610;49.022;12.114;2022-12-18T10:19:05;99253.81;;;-1.65;100.00
18795;BME280;29610;49.022;12.114;2022-12-18T10:21:49;99261.19;;;-1.48;100.00
18795;BME280;29610;49.022;12.114;2022-12-18T10:24:28;99252.13;;;-1.60;100.00
18795;BME280;29610;49.022;12.114;2022-12-18T10:27:14;99248.06;;;-1.49;100.00
18795;BME280;29610;49.022;12.114;2022-12-18T10:29:44;99257.72;;;-1.68;100.00
18795;BME280;29610;49.022;12.114;2022-12-18T10:32:19;99268.97;;;-1.59;100.00
18795;BME280;29610;49.022;12.114;2022-12-18T10:34:52;99260.56;;;-1.63;100.00
18795;BME280;29610;49.022;12.114;2022-12-18T10:37:29;99256.88;;;-1.75;100.00
18795;BME280;29610;49.022;12.114;2022-12-18T10:40:15;99247.63;;;-1.79;100.00
18795;BME280;29610;49.022;12.114;2022-12-18T10:43:05;99237.00;;;-1.92;100.00
18795;BME280;29610;49.022;12.114;2022-12-18T10:45:34;99241.72;;;-1.87;100.00
18795;BME280;29610;49.022;12.114;2022-12-18T10:48:18;99234.94;;;-1.64;100.00
18795;BME280;29610;49.022;12.114;2022-12-18T10:50:50;99232.28;;;-2.03;100.00
18795;BME280;29610;49.022;12.114;2022-12-18T10:53:42;99225.09;;;-2.02;100.00
18795;BME280;29610;49.022;12.114;2022-12-18T10:56:11;99210.16;;;-1.84;100.00
18795;BME280;29610;49.022;12.114;2022-12-18T10:58:40;99220.19;;;-1.86;100.00
18795;BME280;29610;49.022;12.114;2022-12-18T11:01:13;99221.38;;;-1.42;100.00
18795;BME280;29610;49.022;12.114;2022-12-18T11:03:47;99224.81;;;-1.22;100.00
18795;BME280;29610;49.022;12.114;2022-12-18T11:06:33;99223.84;;;-1.61;100.00
18795;BME280;29610;49.022;12.114;2022-12-18T11:09:06;99236.09;;;-1.20;100.00
18795;BME280;29610;49.022;12.114;2022-12-18T11:11:49;99232.69;;;-1.67;100.00
18795;BME280;29610;49.022;12.114;2022-12-18T11:14:24;99239.25;;;-1.76;100.00
18795;BME280;29610;49.022;12.114;2022-12-18T11:16:55;99242.31;;;-1.66;100.00
18795;BME280;29610;49.022;12.114;2022-12-18T11:19:53;99237.81;;;-1.52;100.00
18795;BME280;29610;49.022;12.114;2022-12-18T11:22:26;99251.75;;;-1.70;100.00
18795;BME280;29610;49.022;12.114;2022-12-18T11:25:00;99259.13;;;-1.52;100.00
18795;BME280;29610;49.022;12.114;2022-12-18T11:27:53;99249.88;;;-1.43;100.00
18795;BME280;29610;49.022;12.114;2022-12-18T11:30:26;99249.41;;;-1.07;100.00
18795;BME280;29610;49.022;12.114;2022-12-18T11:33:05;99236.50;;;-1.10;100.00
18795;BME280;29610;49.022;12.114;2022-12-18T11:35:48;99232.63;;;-1.27;100.00
18795;BME280;29610;49.022;12.114;2022-12-18T11:38:23;99233.88;;;-1.30;100.00
18795;BME280;29610;49.022;12.114;2022-12-18T11:40:59;99233.22;;;-1.19;100.00
18795;BME280;29610;49.022;12.114;2022-12-18T11:43:38;99231.63;;;-1.53;100.00
18795;BME280;29610;49.022;12.114;2022-12-18T11:46:13;99244.13;;;-1.40;100.00
18795;BME280;29610;49.022;12.114;2022-12-18T11:48:54;99236.84;;;-0.94;100.00
18795;BME280;29610;49.022;12.114;2022-12-18T11:51:36;99230.78;;;-0.70;100.00
18795;BME280;29610;49.022;12.114;2022-12-18T11:54:12;99224.09;;;-0.85;100.00
18795;BME280;29610;49.022;12.114;2022-12-18T11:56:49;99225.97;;;-0.48;100.00
18795;BME280;29610;49.022;12.114;2022-12-18T11:59:33;99219.59;;;-0.47;100.00
18795;BME280;29610;49.022;12.114;2022-12-18T12:02:31;99230.06;;;-0.90;100.00
18795;BME280;29610;49.022;12.114;2022-12-18T12:05:24;99235.69;;;-0.67;100.00
18795;BME280;29610;49.022;12.114;2022-12-18T12:08:03;99238.38;;;-0.67;100.00
18795;BME280;29610;49.022;12.114;2022-12-18T12:10:53;99222.91;;;-0.52;100.00
18795;BME280;29610;49.022;12.114;2022-12-18T12:13:39;99217.19;;;-0.62;100.00
18795;BME280;29610;49.022;12.114;2022-12-18T12:16:19;99217.00;;;-0.23;100.00
18795;BME280;29610;49.022;12.114;2022-12-18T12:19:12;99199.25;;;-0.17;100.00
18795;BME280;29610;49.022;12.114;2022-12-18T12:21:52;99203.09;;;-0.75;100.00
18795;BME280;29610;49.022;12.114;2022-12-18T12:24:37;99199.63;;;-0.82;100.00
18795;BME280;29610;49.022;12.114;2022-12-18T12:27:19;99189.00;;;-0.95;100.00
18795;BME280;29610;49.022;12.114;2022-12-18T12:30:03;99202.09;;;-1.51;100.00
18795;BME280;29610;49.022;12.114;2022-12-18T12:32:54;99190.69;;;-1.01;100.00
18795;BME280;29610;49.022;12.114;2022-12-18T12:35:42;99187.22;;;-0.64;100.00
18795;BME280;29610;49.022;12.114;2022-12-18T12:38:19;99174.72;;;-0.70;100.00
18795;BME280;29610;49.022;12.114;2022-12-18T12:40:59;99177.50;;;-0.52;100.00
18795;BME280;29610;49.022;12.114;2022-12-18T12:43:38;99177.31;;;-0.57;100.00
18795;BME280;29610;49.022;12.114;2022-12-18T12:46:20;99177.22;;;-0.37;100.00
18795;BME280;29610;49.022;12.114;2022-12-18T12:48:55;99181.16;;;-0.46;100.00
18795;BME280;29610;49.022;12.114;2022-12-18T12:51:28;99181.13;;;-0.77;100.00
18795;BME280;29610;49.022;12.114;2022-12-18T12:54:01;99186.66;;;-0.72;100.00
18795;BME280;29610;49.022;12.114;2022-12-18T12:56:42;99182.19;;;-0.78;100.00
18795;BME280;29610;49.022;12.114;2022-12-18T12:59:25;99179.38;;;-0.96;100.00
18795;BME280;29610;49.022;12.114;2022-12-18T13:02:08;99186.09;;;-0.87;100.00
18795;BME280;29610;49.022;12.114;2022-12-18T13:04:52;99188.66;;;-0.30;100.00
18795;BME280;29610;49.022;12.114;2022-12-18T13:07:30;99180.94;;;-0.45;100.00
18795;BME280;29610;49.022;12.114;2022-12-18T13:10:34;99181.72;;;-0.38;100.00
18795;BME280;29610;49.022;12.114;2022-12-18T13:13:08;99181.63;;;-0.56;100.00